createdAt,value
2017-09-26T00:01:35.745Z,1014.97
2017-09-26T00:06:31.361Z,1014.87
2017-09-26T00:11:27.099Z,1014.93
2017-09-26T00:16:23.019Z,1014.84
2017-09-26T00:21:19.744Z,1014.94
2017-09-26T00:26:16.928Z,1014.95
2017-09-26T00:31:12.669Z,1014.98
2017-09-26T00:36:09.820Z,1014.94
2017-09-26T00:41:05.694Z,1014.88
2017-09-26T00:46:02.422Z,1014.90
2017-09-26T00:50:58.056Z,1014.97
2017-09-26T00:55:54.833Z,1015.01
2017-09-26T01:00:51.153Z,1014.99
2017-09-26T01:05:46.584Z,1014.97
2017-09-26T01:10:42.461Z,1015.01
2017-09-26T01:15:39.208Z,1015.03
2017-09-26T01:20:34.540Z,1014.98
2017-09-26T01:25:30.216Z,1015.00
2017-09-26T01:30:26.063Z,1015.07
2017-09-26T01:35:21.946Z,1014.98
2017-09-26T01:40:17.823Z,1014.99
2017-09-26T01:45:14.844Z,1015.01
2017-09-26T01:50:10.378Z,1014.98
2017-09-26T01:55:06.175Z,1015.10
2017-09-26T02:00:01.993Z,1015.02
2017-09-26T02:04:57.688Z,1015.07
2017-09-26T02:09:53.443Z,1015.08
2017-09-26T02:14:49.873Z,1015.08
2017-09-26T02:19:45.843Z,1015.09
2017-09-26T02:24:41.594Z,1015.03
2017-09-26T02:29:37.361Z,1015.11
2017-09-26T02:34:33.611Z,1015.10
2017-09-26T02:39:29.530Z,1015.14
2017-09-26T02:44:25.139Z,1015.04
2017-09-26T02:49:20.999Z,1015.12
2017-09-26T02:54:16.947Z,1015.15
2017-09-26T02:59:12.859Z,1015.15
2017-09-26T03:04:08.788Z,1015.14
2017-09-26T03:09:04.660Z,1015.18
2017-09-26T03:14:00.455Z,1015.25
2017-09-26T03:18:56.288Z,1015.21
2017-09-26T03:23:53.255Z,1015.29
2017-09-26T03:28:48.737Z,1015.22
2017-09-26T03:33:44.620Z,1015.26
2017-09-26T03:38:41.797Z,1015.32
2017-09-26T03:43:37.136Z,1015.28
2017-09-26T03:48:33.964Z,1015.36
2017-09-26T03:53:29.644Z,1015.35
2017-09-26T03:58:25.302Z,1015.42
2017-09-26T04:03:21.062Z,1015.27
2017-09-26T04:08:17.813Z,1015.34
2017-09-26T04:13:13.023Z,1015.40
2017-09-26T04:18:09.349Z,1015.27
2017-09-26T04:23:05.696Z,1015.32
2017-09-26T04:28:01.559Z,1015.28
2017-09-26T04:32:57.150Z,1015.25
2017-09-26T04:37:53.159Z,1015.30
2017-09-26T04:42:49.820Z,1015.29
2017-09-26T04:47:45.391Z,1015.35
2017-09-26T04:52:41.731Z,1015.36
2017-09-26T04:57:37.861Z,1015.36
2017-09-26T05:02:33.452Z,1015.34
2017-09-26T05:07:30.203Z,1015.36
2017-09-26T05:12:26.053Z,1015.50
2017-09-26T05:17:22.077Z,1015.59
2017-09-26T05:22:17.986Z,1015.46
2017-09-26T05:27:13.868Z,1015.58
2017-09-26T05:32:09.602Z,1015.56
2017-09-26T05:37:05.411Z,1015.61
2017-09-26T05:42:02.505Z,1015.54
2017-09-26T05:46:58.012Z,1015.72
2017-09-26T05:51:53.849Z,1015.65
2017-09-26T05:56:49.930Z,1015.62
2017-09-26T06:01:45.867Z,1015.71
2017-09-26T06:06:41.830Z,1015.67
2017-09-26T06:11:38.986Z,1015.74
2017-09-26T06:16:35.795Z,1015.72
2017-09-26T06:21:31.314Z,1015.73
2017-09-26T06:26:28.156Z,1015.73
2017-09-26T06:31:24.247Z,1015.98
2017-09-26T06:36:21.165Z,1015.90
2017-09-26T06:41:16.658Z,1015.91
2017-09-26T06:46:12.499Z,1016.08
2017-09-26T06:51:09.321Z,1016.05
2017-09-26T06:56:05.307Z,1016.13
2017-09-26T07:01:01.184Z,1016.25
2017-09-26T07:05:57.056Z,1016.18
2017-09-26T07:10:53.080Z,1016.18
2017-09-26T07:15:48.748Z,1016.26
2017-09-26T07:20:44.591Z,1016.26
2017-09-26T07:25:42.754Z,1016.23
2017-09-26T07:30:38.310Z,1016.20
2017-09-26T07:35:34.711Z,1016.25
2017-09-26T07:40:30.933Z,1016.23
2017-09-26T07:45:26.865Z,1016.31
2017-09-26T07:50:22.767Z,1016.34
2017-09-26T07:55:19.103Z,1016.30
2017-09-26T08:00:15.482Z,1016.29
2017-09-26T08:05:11.448Z,1016.38
2017-09-26T08:10:07.552Z,1016.31
2017-09-26T08:15:03.650Z,1016.34
2017-09-26T08:20:00.400Z,1016.47
2017-09-26T08:24:57.500Z,1016.48
2017-09-26T08:29:53.318Z,1016.46
2017-09-26T08:34:49.206Z,1016.50
2017-09-26T08:39:45.997Z,1016.48
2017-09-26T08:44:41.313Z,1016.48
2017-09-26T08:49:39.028Z,1016.41
2017-09-26T08:54:35.763Z,1016.51
2017-09-26T08:59:31.444Z,1016.53
2017-09-26T09:04:28.436Z,1016.47
2017-09-26T09:09:23.903Z,1016.37
2017-09-26T09:14:21.102Z,1016.39
2017-09-26T09:19:16.882Z,1016.42
2017-09-26T09:24:13.277Z,1016.39
2017-09-26T09:29:09.030Z,1016.35
2017-09-26T09:34:05.673Z,1016.36
2017-09-26T09:39:01.483Z,1016.49
2017-09-26T09:43:58.431Z,1016.50
2017-09-26T09:48:53.890Z,1016.47
2017-09-26T09:53:51.415Z,1016.47
2017-09-26T09:58:47.137Z,1016.53
2017-09-26T10:03:45.079Z,1016.53
2017-09-26T10:08:40.882Z,1016.45
2017-09-26T10:13:37.039Z,1016.40
2017-09-26T10:18:33.138Z,1016.40
2017-09-26T10:23:29.006Z,1016.48
2017-09-26T10:28:25.925Z,1016.46
2017-09-26T10:33:22.118Z,1016.44
2017-09-26T10:38:18.570Z,1016.47
2017-09-26T10:43:14.380Z,1016.44
2017-09-26T10:48:11.973Z,1016.48
2017-09-26T10:53:08.518Z,1016.51
2017-09-26T10:58:05.957Z,1016.41
2017-09-26T11:03:03.749Z,1016.50
2017-09-26T11:08:00.598Z,1016.41
2017-09-26T11:12:58.128Z,1016.42
2017-09-26T11:17:53.996Z,1016.48
2017-09-26T11:22:49.843Z,1016.34
2017-09-26T11:27:46.841Z,1016.42
2017-09-26T11:32:43.691Z,1016.47
2017-09-26T11:37:40.249Z,1016.39
2017-09-26T11:42:37.286Z,1016.42
2017-09-26T11:47:33.276Z,1016.47
2017-09-26T11:52:29.191Z,1016.44
2017-09-26T11:57:25.069Z,1016.31
2017-09-26T12:02:19.766Z,1016.30
2017-09-26T12:07:15.303Z,1016.31
2017-09-26T12:12:12.771Z,1016.30
2017-09-26T12:17:08.086Z,1016.32
2017-09-26T12:22:03.849Z,1016.32
2017-09-26T12:26:59.548Z,1016.33
2017-09-26T12:31:55.340Z,1016.25
2017-09-26T12:36:51.422Z,1016.21
2017-09-26T12:41:47.495Z,1016.22
2017-09-26T12:46:43.538Z,1016.19
2017-09-26T12:51:39.176Z,1016.20
2017-09-26T12:56:34.803Z,1016.07
2017-09-26T13:01:31.602Z,1016.13
2017-09-26T13:06:27.423Z,1016.10
2017-09-26T13:11:25.290Z,1016.02
2017-09-26T13:16:21.592Z,1015.95
2017-09-26T13:21:18.945Z,1016.02
2017-09-26T13:26:15.438Z,1016.04
2017-09-26T13:31:11.356Z,1015.93
2017-09-26T13:36:08.245Z,1015.80
2017-09-26T13:41:04.075Z,1015.93
2017-09-26T13:46:00.141Z,1015.82
2017-09-26T13:50:56.152Z,1015.77
2017-09-26T13:55:51.951Z,1015.79
2017-09-26T14:00:49.564Z,1015.86
2017-09-26T14:05:46.605Z,1015.79
2017-09-26T14:10:42.826Z,1015.79
2017-09-26T14:15:39.223Z,1015.75
2017-09-26T14:20:34.857Z,1015.76
2017-09-26T14:25:30.225Z,1015.78
2017-09-26T14:30:26.899Z,1015.69
2017-09-26T14:35:22.223Z,1015.68
2017-09-26T14:40:19.052Z,1015.69
2017-09-26T14:45:15.817Z,1015.63
2017-09-26T14:50:11.441Z,1015.64
2017-09-26T14:55:07.775Z,1015.70
2017-09-26T15:00:03.571Z,1015.81
2017-09-26T15:04:59.172Z,1015.85
2017-09-26T15:09:56.003Z,1015.90
2017-09-26T15:14:51.554Z,1015.96
2017-09-26T15:19:48.775Z,1015.99
2017-09-26T15:24:44.316Z,1016.03
2017-09-26T15:29:39.995Z,1016.14
2017-09-26T15:34:35.771Z,1016.09
2017-09-26T15:39:31.460Z,1016.01
2017-09-26T15:44:28.291Z,1016.02
2017-09-26T15:49:23.585Z,1016.00
2017-09-26T15:54:19.458Z,1016.04
2017-09-26T15:59:16.146Z,1015.98
2017-09-26T16:04:11.597Z,1015.99
2017-09-26T16:09:07.394Z,1016.05
2017-09-26T16:14:03.443Z,1016.05
2017-09-26T16:18:59.339Z,1016.15
2017-09-26T16:23:54.889Z,1016.20
2017-09-26T16:28:51.361Z,1016.20
2017-09-26T16:33:47.237Z,1016.30
2017-09-26T16:38:44.061Z,1016.30
2017-09-26T16:43:39.636Z,1016.38
2017-09-26T16:48:37.268Z,1016.48
2017-09-26T16:53:32.361Z,1016.43
2017-09-26T16:58:29.300Z,1016.43
2017-09-26T17:03:25.395Z,1016.56
2017-09-26T17:08:21.072Z,1016.53
2017-09-26T17:13:17.181Z,1016.64
2017-09-26T17:18:12.979Z,1016.71
2017-09-26T17:23:09.921Z,1016.77
2017-09-26T17:28:05.468Z,1016.75
2017-09-26T17:33:01.481Z,1016.83
2017-09-26T17:37:57.380Z,1016.85
2017-09-26T17:42:54.306Z,1016.85
2017-09-26T17:47:50.753Z,1016.89
2017-09-26T17:52:47.721Z,1016.95
2017-09-26T17:57:43.164Z,1016.91
2017-09-26T18:02:40.022Z,1017.01
2017-09-26T18:07:35.585Z,1017.11
2017-09-26T18:12:31.412Z,1016.99
2017-09-26T18:17:27.195Z,1017.08
2017-09-26T18:22:23.439Z,1017.11
2017-09-26T18:27:20.439Z,1017.10
2017-09-26T18:32:15.697Z,1017.12
2017-09-26T18:37:11.993Z,1017.14
2017-09-26T18:42:07.563Z,1017.06
2017-09-26T18:47:04.450Z,1017.21
2017-09-26T18:52:00.273Z,1017.24
2017-09-26T18:56:56.201Z,1017.23
2017-09-26T19:01:51.954Z,1017.24
2017-09-26T19:06:47.576Z,1017.26
2017-09-26T19:11:43.398Z,1017.29
2017-09-26T19:16:40.331Z,1017.25
2017-09-26T19:21:35.729Z,1017.32
2017-09-26T19:26:31.769Z,1017.39
2017-09-26T19:31:27.574Z,1017.34
2017-09-26T19:36:24.422Z,1017.32
2017-09-26T19:41:19.865Z,1017.31
2017-09-26T19:46:16.353Z,1017.32
2017-09-26T19:51:12.072Z,1017.38
2017-09-26T19:56:07.939Z,1017.33
2017-09-26T20:01:04.947Z,1017.25
2017-09-26T20:06:01.245Z,1017.22
2017-09-26T20:10:57.145Z,1017.28
2017-09-26T20:15:53.009Z,1017.19
2017-09-26T20:20:48.633Z,1017.21
2017-09-26T20:25:45.506Z,1017.17
2017-09-26T20:30:41.229Z,1017.26
2017-09-26T20:35:38.060Z,1017.25
2017-09-26T20:40:33.851Z,1017.31
2017-09-26T20:45:30.911Z,1017.33
2017-09-26T20:50:26.668Z,1017.29
2017-09-26T20:55:23.370Z,1017.27
2017-09-26T21:00:20.319Z,1017.24
2017-09-26T21:05:15.838Z,1017.18
2017-09-26T21:10:11.351Z,1017.17
2017-09-26T21:15:07.880Z,1017.28
2017-09-26T21:20:04.834Z,1017.25
2017-09-26T21:25:02.572Z,1017.29
2017-09-26T21:29:57.901Z,1017.29
2017-09-26T21:34:54.350Z,1017.27
2017-09-26T21:39:49.887Z,1017.29
2017-09-26T21:44:45.850Z,1017.35
2017-09-26T21:49:41.646Z,1017.28
2017-09-26T21:54:37.813Z,1017.33
2017-09-26T21:59:33.278Z,1017.32
2017-09-26T22:04:29.362Z,1017.18
2017-09-26T22:09:25.181Z,1017.36
2017-09-26T22:14:21.051Z,1017.33
2017-09-26T22:19:16.641Z,1017.40
2017-09-26T22:24:12.580Z,1017.38
2017-09-26T22:29:08.173Z,1017.28
2017-09-26T22:34:04.176Z,1017.34
2017-09-26T22:39:00.162Z,1017.35
2017-09-26T22:43:55.682Z,1017.31
2017-09-26T22:48:51.480Z,1017.27
2017-09-26T22:53:47.799Z,1017.32
2017-09-26T22:58:43.621Z,1017.35
2017-09-26T23:03:39.461Z,1017.30
2017-09-26T23:08:35.213Z,1017.22
2017-09-26T23:13:32.118Z,1017.26
2017-09-26T23:18:28.292Z,1017.17
2017-09-26T23:23:24.822Z,1017.17
2017-09-26T23:28:20.924Z,1017.17
2017-09-26T23:33:17.773Z,1017.14
2017-09-26T23:38:14.658Z,1017.20
2017-09-26T23:43:11.259Z,1017.20
2017-09-26T23:48:06.866Z,1017.24
2017-09-26T23:53:02.628Z,1017.13
2017-09-26T23:57:58.123Z,1017.12
